createdAt,value
2016-02-10T07:37:24.103Z,11451
2016-02-10T07:37:34.822Z,11668
2016-02-10T07:37:45.541Z,11831
2016-02-10T07:37:56.215Z,12060
2016-02-10T07:38:06.918Z,12273
2016-02-10T07:38:17.621Z,12400
2016-02-10T07:38:28.388Z,12466
2016-02-10T07:38:39.232Z,12430
2016-02-10T07:38:49.935Z,12403
2016-02-10T07:39:00.685Z,12392
2016-02-10T07:39:11.404Z,12446
2016-02-10T07:39:22.110Z,12485
2016-02-10T07:39:32.829Z,12492
2016-02-10T07:39:43.532Z,12535
2016-02-10T07:39:54.313Z,12539
2016-02-10T07:40:05.188Z,12507
2016-02-10T07:40:15.923Z,12507
2016-02-10T07:40:26.629Z,12571
2016-02-10T07:40:37.363Z,12575
2016-02-10T07:40:48.066Z,12548
2016-02-10T07:40:58.785Z,12435
2016-02-10T07:41:09.426Z,12385
2016-02-10T07:41:20.381Z,12287
2016-02-10T07:41:31.584Z,12206
2016-02-10T07:41:42.459Z,12034
2016-02-10T07:41:53.303Z,11914
2016-02-10T07:42:04.068Z,11778
2016-02-10T07:42:14.928Z,11603
2016-02-10T07:42:25.743Z,11472
2016-02-10T07:42:36.478Z,11304
2016-02-10T07:42:48.024Z,11290
2016-02-10T07:42:58.806Z,11295
2016-02-10T07:43:09.509Z,11326
2016-02-10T07:43:20.309Z,11401
2016-02-10T07:43:31.012Z,11455
2016-02-10T07:43:42.184Z,11482
2016-02-10T07:43:54.543Z,11482
2016-02-10T07:44:06.824Z,11471
2016-02-10T07:44:17.559Z,11475
2016-02-10T07:44:28.296Z,11459
2016-02-10T07:44:38.984Z,11475
2016-02-10T07:44:49.687Z,11507
2016-02-10T07:45:01.046Z,11588
2016-02-10T07:45:11.780Z,11686
2016-02-10T07:45:23.596Z,11779
2016-02-10T07:45:35.065Z,11919
2016-02-10T07:45:45.768Z,11930
2016-02-10T07:45:56.471Z,11969
2016-02-10T07:46:08.081Z,11937
2016-02-10T07:46:18.911Z,11965
2016-02-10T07:46:29.630Z,11969
2016-02-10T07:46:40.380Z,11969
2016-02-10T07:46:51.036Z,11926
2016-02-10T07:47:01.786Z,11856
2016-02-10T07:47:12.521Z,11872
2016-02-10T07:47:23.289Z,11763
2016-02-10T07:47:33.977Z,11736
2016-02-10T07:47:44.852Z,11729
2016-02-10T07:47:55.633Z,11650
2016-02-10T07:48:06.399Z,11751
2016-02-10T07:48:17.118Z,11860
2016-02-10T07:48:27.854Z,12012
2016-02-10T07:48:38.604Z,12209
2016-02-10T07:48:49.307Z,12442
2016-02-10T07:49:00.120Z,12757
2016-02-10T07:49:10.807Z,12998
2016-02-10T07:49:21.607Z,13254
2016-02-10T07:49:32.419Z,13412
2016-02-10T07:49:44.248Z,13521
2016-02-10T07:49:56.294Z,13487
2016-02-10T07:50:07.124Z,13340
2016-02-10T07:50:17.811Z,13296
2016-02-10T07:50:28.532Z,13235
2016-02-10T07:50:39.266Z,13191
2016-02-10T07:50:49.985Z,13087
2016-02-10T07:51:01.282Z,12991
2016-02-10T07:51:12.235Z,12862
2016-02-10T07:51:23.036Z,12792
2016-02-10T07:51:33.911Z,12772
2016-02-10T07:51:45.801Z,12732
2016-02-10T07:51:56.505Z,12775
2016-02-10T08:08:03.957Z,12745
2016-02-10T08:08:14.691Z,12576
2016-02-10T08:08:26.507Z,12416
2016-02-10T08:08:37.116Z,12370
2016-02-10T08:08:48.460Z,12248
2016-02-10T08:08:59.069Z,12192
2016-02-10T08:09:09.757Z,12094
2016-02-10T08:09:20.510Z,11987
2016-02-10T08:09:31.213Z,11847
2016-02-10T08:09:41.931Z,11763
2016-02-10T08:09:52.728Z,11686
2016-02-10T08:10:03.525Z,11577
2016-02-10T08:10:14.213Z,11645
2016-02-10T08:10:24.919Z,11606
2016-02-10T08:10:42.091Z,11572
2016-02-10T08:10:52.794Z,11344
2016-02-10T08:11:03.544Z,11390
2016-02-10T08:11:16.013Z,11340
2016-02-10T08:11:26.702Z,11403
2016-02-10T08:11:37.499Z,11380
2016-02-10T08:11:48.265Z,11385
2016-02-10T08:11:59.140Z,11405
2016-02-10T08:12:09.874Z,11414
2016-02-10T08:12:21.924Z,11301
2016-02-10T08:12:32.611Z,11321
2016-02-10T08:12:43.299Z,11294
2016-02-10T08:12:54.705Z,11287
2016-02-10T08:13:05.330Z,11237
2016-02-10T08:13:16.049Z,11135
2016-02-10T08:13:26.785Z,11058
2016-02-10T08:13:38.379Z,11132
2016-02-10T08:13:49.020Z,11164
2016-02-10T08:13:59.710Z,11207
2016-02-10T08:14:10.382Z,11261
2016-02-10T08:14:21.588Z,11293
2016-02-10T08:14:32.322Z,11250
2016-02-10T08:14:43.088Z,11148
2016-02-10T08:14:53.791Z,11089
2016-02-10T08:15:04.479Z,11141
2016-02-10T08:15:15.166Z,11071
2016-02-10T08:15:26.622Z,11001
2016-02-10T08:15:37.310Z,10946
2016-02-10T08:15:47.966Z,10919
2016-02-10T08:15:58.810Z,10946
2016-02-10T08:16:09.513Z,10985
2016-02-10T08:16:20.172Z,11109
2016-02-10T08:16:31.516Z,11230
2016-02-10T08:16:42.188Z,11361
2016-02-10T08:16:52.891Z,11520
2016-02-10T08:17:03.594Z,11722
2016-02-10T08:17:14.469Z,11794
2016-02-10T08:17:25.127Z,11637
2016-02-10T08:17:35.940Z,11741
2016-02-10T08:17:46.674Z,11893
2016-02-10T08:17:57.596Z,11993
2016-02-10T08:18:08.362Z,12038
2016-02-10T08:18:19.049Z,12115
2016-02-10T08:18:29.880Z,12134
2016-02-10T08:18:40.693Z,12114
2016-02-10T08:18:51.396Z,12141
2016-02-10T08:19:02.245Z,12094
2016-02-10T08:19:12.995Z,12109
2016-02-10T08:19:23.685Z,12089
2016-02-10T08:19:34.482Z,12091
2016-02-10T08:19:45.169Z,12065
2016-02-10T08:19:55.904Z,12021
2016-02-10T08:20:06.623Z,11995
2016-02-10T08:20:17.357Z,11944
2016-02-10T08:20:28.062Z,12041
2016-02-10T08:20:38.796Z,12234
2016-02-10T08:20:49.843Z,12446
2016-02-10T08:21:00.578Z,12641
2016-02-10T08:21:11.296Z,12871
2016-02-10T08:21:22.018Z,13013
2016-02-10T08:21:32.753Z,13049
2016-02-10T08:21:44.049Z,12962
2016-02-10T08:21:54.737Z,12840
2016-02-10T08:22:05.987Z,12797
2016-02-10T08:22:16.659Z,12806
2016-02-10T08:22:27.366Z,12860
2016-02-10T08:22:38.085Z,12967
2016-02-10T08:38:45.192Z,13116
2016-02-10T08:38:55.880Z,16730
2016-02-10T08:39:06.568Z,16746
2016-02-10T08:39:17.302Z,16735
2016-02-10T08:39:28.134Z,16662
2016-02-10T08:39:38.821Z,16573
2016-02-10T08:39:49.540Z,16422
2016-02-10T08:40:00.290Z,16229
2016-02-10T08:40:11.009Z,16000
2016-02-10T08:40:21.839Z,15746
2016-02-10T08:40:32.557Z,15525
2016-02-10T08:40:43.401Z,15419
2016-02-10T08:40:54.120Z,15328
2016-02-10T08:41:04.839Z,15248
2016-02-10T08:41:15.589Z,15056
2016-02-10T08:41:26.341Z,14897
2016-02-10T08:41:37.044Z,14783
2016-02-10T08:41:47.778Z,14686
2016-02-10T08:41:59.028Z,14555
2016-02-10T08:42:09.763Z,14476
2016-02-10T08:42:20.484Z,14382
2016-02-10T08:42:31.203Z,14459
2016-02-10T08:42:41.984Z,14485
2016-02-10T08:42:52.719Z,14502
2016-02-10T08:43:03.437Z,14442
2016-02-10T08:43:14.172Z,14442
2016-02-10T08:43:24.831Z,14373
2016-02-10T08:43:35.550Z,14309
2016-02-10T08:43:46.237Z,14186
2016-02-10T08:43:57.019Z,14070
2016-02-10T08:44:07.815Z,13902
2016-02-10T08:44:18.612Z,13680
2016-02-10T08:44:29.318Z,13364
2016-02-10T08:44:40.007Z,13070
2016-02-10T08:44:50.726Z,12979
2016-02-10T08:45:01.429Z,12951
2016-02-10T08:45:12.132Z,12632
2016-02-10T08:45:22.915Z,12591
2016-02-10T08:45:33.650Z,12563
2016-02-10T08:45:44.353Z,12669
2016-02-10T08:45:55.040Z,12647
2016-02-10T08:46:05.775Z,12592
2016-02-10T08:46:16.478Z,12585
2016-02-10T08:46:27.168Z,12538
2016-02-10T08:46:37.856Z,12624
2016-02-10T08:46:48.637Z,12748
2016-02-10T08:46:59.449Z,12911
2016-02-10T08:47:10.121Z,13129
2016-02-10T08:47:20.827Z,13405
2016-02-10T08:47:31.546Z,13704
2016-02-10T08:47:42.218Z,14159
2016-02-10T08:47:53.062Z,14649
2016-02-10T08:48:03.874Z,15068
2016-02-10T08:48:14.577Z,15308
2016-02-10T08:48:25.284Z,15627
2016-02-10T08:48:36.002Z,16025
2016-02-10T08:48:46.737Z,16300
2016-02-10T08:48:57.471Z,16463
2016-02-10T08:49:08.174Z,16574
2016-02-10T08:49:18.971Z,16632
2016-02-10T08:49:29.676Z,16698
2016-02-10T08:49:40.411Z,16667
2016-02-10T08:49:51.089Z,16635
2016-02-10T08:50:01.855Z,16452
2016-02-10T08:50:12.574Z,16236
2016-02-10T08:50:23.327Z,15941
2016-02-10T08:50:34.014Z,15792
2016-02-10T08:50:44.717Z,15634
2016-02-10T08:50:55.420Z,15546
2016-02-10T08:51:06.217Z,15546
2016-02-10T08:51:16.905Z,15676
2016-02-10T08:51:27.610Z,15790
2016-02-10T08:51:38.329Z,15895
2016-02-10T08:51:49.047Z,15923
2016-02-10T08:51:59.719Z,15861
2016-02-10T08:52:10.438Z,15872
2016-02-10T08:52:21.175Z,15875
2016-02-10T08:52:31.863Z,15919
2016-02-10T08:52:42.504Z,15799
2016-02-10T08:52:53.207Z,15510
2016-02-10T08:53:04.347Z,15441
2016-02-10T09:09:14.064Z,19635
2016-02-10T09:09:31.176Z,19580
2016-02-10T09:09:41.895Z,19541
2016-02-10T09:09:52.598Z,19611
2016-02-10T09:10:03.817Z,19716
2016-02-10T09:10:14.458Z,19742
2016-02-10T09:10:25.320Z,19855
2016-02-10T09:10:36.023Z,19792
2016-02-10T09:10:46.789Z,19727
2016-02-10T09:10:57.476Z,19881
2016-02-10T09:11:08.211Z,20107
2016-02-10T09:11:18.898Z,20368
2016-02-10T09:11:30.306Z,20592
2016-02-10T09:11:41.275Z,20626
2016-02-10T09:11:52.010Z,20606
2016-02-10T09:12:03.385Z,20606
2016-02-10T09:12:14.088Z,20597
2016-02-10T09:12:24.825Z,20509
2016-02-10T09:12:35.575Z,20412
2016-02-10T09:12:46.294Z,20228
2016-02-10T09:12:57.106Z,20077
2016-02-10T09:13:08.106Z,19995
2016-02-10T09:13:18.856Z,19950
2016-02-10T09:13:29.922Z,19880
2016-02-10T09:13:40.609Z,19818
2016-02-10T09:13:51.281Z,19867
2016-02-10T09:14:02.141Z,19977
2016-02-10T09:14:12.798Z,20003
2016-02-10T09:14:23.613Z,20065
2016-02-10T09:14:34.316Z,20110
2016-02-10T09:14:45.066Z,20162
2016-02-10T09:14:55.801Z,20267
2016-02-10T09:15:06.551Z,20261
2016-02-10T09:15:17.254Z,20366
2016-02-10T09:15:27.943Z,20394
2016-02-10T09:15:38.709Z,20326
2016-02-10T09:15:49.412Z,20380
2016-02-10T09:16:00.147Z,20424
2016-02-10T09:16:10.834Z,20356
2016-02-10T09:16:21.540Z,20296
2016-02-10T09:16:32.275Z,20321
2016-02-10T09:16:43.009Z,20284
2016-02-10T09:16:53.728Z,20335
2016-02-10T09:17:04.462Z,20284
2016-02-10T09:17:15.243Z,20188
2016-02-10T09:17:25.964Z,20049
2016-02-10T09:17:36.777Z,19864
2016-02-10T09:17:47.511Z,19617
2016-02-10T09:17:58.198Z,19353
2016-02-10T09:18:08.948Z,19119
2016-02-10T09:18:19.714Z,19295
2016-02-10T09:18:30.405Z,18836
2016-02-10T09:18:41.061Z,18899
2016-02-10T09:18:51.764Z,19074
2016-02-10T09:19:02.483Z,19205
2016-02-10T09:19:13.186Z,19233
2016-02-10T09:19:23.970Z,19189
2016-02-10T09:19:34.673Z,19120
2016-02-10T09:19:45.423Z,19007
2016-02-10T09:19:56.111Z,18858
2016-02-10T09:20:06.829Z,18550
2016-02-10T09:20:17.552Z,18648
2016-02-10T09:20:28.257Z,18408
2016-02-10T09:20:39.132Z,18108
2016-02-10T09:20:49.788Z,17850
2016-02-10T09:21:00.649Z,17603
2016-02-10T09:21:11.399Z,17488
2016-02-10T09:21:22.121Z,17512
2016-02-10T09:21:32.808Z,17758
2016-02-10T09:21:43.605Z,18181
2016-02-10T09:21:54.308Z,18711
2016-02-10T09:22:05.136Z,19375
2016-02-10T09:22:15.824Z,20163
2016-02-10T09:22:26.514Z,20943
2016-02-10T09:22:37.295Z,21679
2016-02-10T09:22:47.905Z,22237
2016-02-10T09:22:58.624Z,22603
2016-02-10T09:23:09.327Z,22660
2016-02-10T09:23:20.030Z,22598
2016-02-10T09:23:30.782Z,22245
2016-02-10T09:39:32.123Z,17765
2016-02-10T09:39:42.841Z,17710
2016-02-10T09:39:53.591Z,17645
2016-02-10T09:40:04.341Z,17574
2016-02-10T09:40:15.060Z,17695
2016-02-10T09:40:25.924Z,18062
2016-02-10T09:40:36.642Z,18587
2016-02-10T09:40:47.314Z,19175
2016-02-10T09:40:58.095Z,19771
2016-02-10T09:41:08.783Z,20281
2016-02-10T09:41:19.580Z,21002
2016-02-10T09:41:30.302Z,21750
2016-02-10T09:41:40.989Z,22641
2016-02-10T09:41:51.723Z,23362
2016-02-10T09:42:02.395Z,24077
2016-02-10T09:42:13.114Z,24619
2016-02-10T09:42:23.804Z,25098
2016-02-10T09:42:34.507Z,25535
2016-02-10T09:42:45.225Z,25892
2016-02-10T09:42:55.960Z,26151
2016-02-10T09:43:06.679Z,26296
2016-02-10T09:43:17.397Z,26412
2016-02-10T09:43:28.228Z,26355
2016-02-10T09:43:39.010Z,26277
2016-02-10T09:43:50.353Z,26023
2016-02-10T09:44:01.197Z,25723
2016-02-10T09:44:12.338Z,25264
2016-02-10T09:44:23.060Z,24646
2016-02-10T09:44:33.872Z,23883
2016-02-10T09:44:44.575Z,23116
2016-02-10T09:44:55.310Z,22179
2016-02-10T09:45:05.966Z,21236
2016-02-10T09:45:16.653Z,20346
2016-02-10T09:45:27.359Z,19638
2016-02-10T09:45:38.078Z,19080
2016-02-10T09:45:48.766Z,18760
2016-02-10T09:45:59.578Z,18782
2016-02-10T09:46:10.313Z,18998
2016-02-10T09:46:21.002Z,19357
2016-02-10T09:46:31.721Z,19898
2016-02-10T09:46:42.486Z,20391
2016-02-10T09:46:53.205Z,21033
2016-02-10T09:47:03.940Z,21753
2016-02-10T09:47:14.643Z,22442
2016-02-10T09:47:25.427Z,23199
2016-02-10T09:47:36.146Z,23829
2016-02-10T09:47:46.989Z,24240
2016-02-10T09:47:57.708Z,24494
2016-02-10T09:48:08.396Z,24520
2016-02-10T09:48:19.114Z,24561
2016-02-10T09:48:29.835Z,24530
2016-02-10T09:48:41.179Z,24499
2016-02-10T09:48:51.868Z,24476
2016-02-10T09:49:02.525Z,24555
2016-02-10T09:49:13.228Z,24687
2016-02-10T09:49:24.044Z,24925
2016-02-10T09:49:34.747Z,25111
2016-02-10T09:49:45.450Z,25244
2016-02-10T09:49:56.263Z,25280
2016-02-10T09:50:06.997Z,25378
2016-02-10T09:50:17.700Z,25432
2016-02-10T09:50:28.438Z,25565
2016-02-10T09:50:39.172Z,25786
2016-02-10T09:50:49.875Z,26130
2016-02-10T09:51:00.672Z,26440
2016-02-10T09:51:11.391Z,26958
2016-02-10T09:51:22.112Z,27477
2016-02-10T09:51:32.846Z,27853
2016-02-10T09:51:43.518Z,28062
2016-02-10T09:51:54.221Z,28088
2016-02-10T09:52:05.049Z,28105
2016-02-10T09:52:15.737Z,27932
2016-02-10T09:52:26.426Z,27843
2016-02-10T09:52:37.301Z,27623
2016-02-10T09:52:48.020Z,27378
2016-02-10T09:52:58.819Z,27202
2016-02-10T09:53:09.538Z,26813
2016-02-10T09:53:20.350Z,26354
2016-02-10T09:53:31.073Z,25939
2016-02-10T09:53:41.792Z,25567
2016-02-10T10:09:45.300Z,25283
2016-02-10T10:09:56.472Z,17141
2016-02-10T10:10:07.332Z,16994
2016-02-10T10:10:18.035Z,16984
2016-02-10T10:10:28.819Z,16947
2016-02-10T10:10:39.538Z,17101
2016-02-10T10:10:50.256Z,17310
2016-02-10T10:11:00.991Z,17736
2016-02-10T10:11:11.694Z,18052
2016-02-10T10:11:22.369Z,18393
2016-02-10T10:11:33.103Z,18560
2016-02-10T10:11:43.806Z,18580
2016-02-10T10:11:54.509Z,18589
2016-02-10T10:12:05.650Z,18391
2016-02-10T10:12:17.134Z,18245
2016-02-10T10:12:27.997Z,18045
2016-02-10T10:12:38.700Z,17836
2016-02-10T10:12:49.434Z,17609
2016-02-10T10:13:00.106Z,17426
2016-02-10T10:13:10.809Z,17443
2016-02-10T10:13:21.531Z,17601
2016-02-10T10:13:33.578Z,17865
2016-02-10T10:13:44.922Z,18181
2016-02-10T10:13:55.610Z,18471
2016-02-10T10:14:06.345Z,18649
2016-02-10T10:14:17.048Z,18738
2016-02-10T10:14:27.768Z,18767
2016-02-10T10:14:38.456Z,18821
2016-02-10T10:14:49.222Z,18824
2016-02-10T10:14:59.972Z,18984
2016-02-10T10:15:10.643Z,19206
2016-02-10T10:15:21.771Z,19410
2016-02-10T10:15:33.193Z,19489
2016-02-10T10:15:44.068Z,19472
2016-02-10T10:15:54.803Z,19410
2016-02-10T10:16:06.225Z,19341
2016-02-10T10:16:16.959Z,19401
2016-02-10T10:16:27.695Z,19534
2016-02-10T10:16:38.385Z,19787
2016-02-10T10:16:49.135Z,19859
2016-02-10T10:16:59.854Z,19966
2016-02-10T10:17:10.604Z,20002
2016-02-10T10:17:21.369Z,19958
2016-02-10T10:17:32.122Z,19749
2016-02-10T10:17:42.841Z,19668
2016-02-10T10:17:53.560Z,19518
2016-02-10T10:18:04.263Z,19490
2016-02-10T10:18:14.950Z,19427
2016-02-10T10:18:25.655Z,19515
2016-02-10T10:18:36.359Z,19568
2016-02-10T10:18:47.046Z,19611
2016-02-10T10:18:57.812Z,19682
2016-02-10T10:19:08.515Z,19830
2016-02-10T10:19:20.218Z,20041
2016-02-10T10:19:30.955Z,20373
2016-02-10T10:19:42.533Z,20682
2016-02-10T10:19:53.252Z,21268
2016-02-10T10:20:04.033Z,21805
2016-02-10T10:20:14.799Z,22236
2016-02-10T10:20:25.505Z,22483
2016-02-10T10:20:36.255Z,22572
2016-02-10T10:20:46.958Z,22626
2016-02-10T10:20:57.708Z,22643
2016-02-10T10:21:08.458Z,22470
2016-02-10T10:21:19.271Z,22479
2016-02-10T10:21:29.976Z,22734
2016-02-10T10:21:40.679Z,22842
2016-02-10T10:21:51.413Z,22709
2016-02-10T10:22:02.054Z,21975
2016-02-10T10:22:12.759Z,20993
2016-02-10T10:22:23.496Z,20147
2016-02-10T10:22:34.231Z,19505
2016-02-10T10:22:44.981Z,19422
2016-02-10T10:22:55.700Z,19456
2016-02-10T10:23:06.434Z,19560
2016-02-10T10:23:17.168Z,19663
2016-02-10T10:23:27.984Z,19899
2016-02-10T10:23:38.687Z,20293
2016-02-10T10:23:49.421Z,20826
2016-02-10T10:24:00.124Z,21229
2016-02-10T10:24:10.812Z,21483
2016-02-10T10:24:21.674Z,21526
2016-02-10T10:40:24.687Z,28971
2016-02-10T10:40:35.375Z,28657
2016-02-10T10:40:46.000Z,28456
2016-02-10T10:40:56.703Z,28353
2016-02-10T10:41:07.421Z,28373
2016-02-10T10:41:18.218Z,28462
2016-02-10T10:41:28.955Z,28428
2016-02-10T10:41:39.658Z,28315
2016-02-10T10:41:50.378Z,28203
2016-02-10T10:42:01.659Z,28020
2016-02-10T10:42:12.471Z,27724
2016-02-10T10:42:23.193Z,27522
2016-02-10T10:42:33.943Z,27332
2016-02-10T10:42:44.693Z,27324
2016-02-10T10:42:55.490Z,27568
2016-02-10T10:43:06.302Z,27804
2016-02-10T10:43:17.162Z,28233
2016-02-10T10:43:27.883Z,28531
2016-02-10T10:43:38.554Z,28715
2016-02-10T10:43:49.258Z,28619
2016-02-10T10:43:59.945Z,28374
2016-02-10T10:44:10.586Z,27911
2016-02-10T10:44:21.320Z,27150
2016-02-10T10:44:32.043Z,26606
2016-02-10T10:44:42.746Z,25591
2016-02-10T10:44:53.433Z,24825
2016-02-10T10:45:04.121Z,23851
2016-02-10T10:45:14.855Z,23260
2016-02-10T10:45:25.607Z,22774
2016-02-10T10:45:36.451Z,22551
2016-02-10T10:45:47.248Z,22503
2016-02-10T10:45:57.982Z,22763
2016-02-10T10:46:08.779Z,22861
2016-02-10T10:46:19.514Z,23275
2016-02-10T10:46:30.345Z,23097
2016-02-10T10:46:41.095Z,23152
2016-02-10T10:46:51.829Z,23553
2016-02-10T10:47:02.595Z,23912
2016-02-10T10:47:13.360Z,24350
2016-02-10T10:47:24.081Z,24998
2016-02-10T10:47:34.800Z,25447
2016-02-10T10:47:45.487Z,25651
2016-02-10T10:47:56.175Z,25521
2016-02-10T10:48:06.862Z,25503
2016-02-10T10:48:17.597Z,25520
2016-02-10T10:48:28.240Z,25510
2016-02-10T10:48:38.928Z,25491
2016-02-10T10:48:49.647Z,25569
2016-02-10T10:49:00.365Z,25554
2016-02-10T10:49:11.178Z,25495
2016-02-10T10:49:21.897Z,25347
2016-02-10T10:49:32.634Z,25006
2016-02-10T10:49:43.353Z,24410
2016-02-10T10:49:54.040Z,23882
2016-02-10T10:50:04.698Z,23521
2016-02-10T10:50:15.433Z,23519
2016-02-10T10:50:26.232Z,24140
2016-02-10T10:50:36.935Z,24990
2016-02-10T10:50:47.669Z,25702
2016-02-10T10:50:58.404Z,26003
2016-02-10T10:51:09.111Z,25970
2016-02-10T10:51:20.704Z,25850
2016-02-10T10:51:31.411Z,25621
2016-02-10T10:51:42.177Z,25316
2016-02-10T10:51:52.911Z,25112
2016-02-10T10:52:03.646Z,25067
2016-02-10T10:52:14.365Z,25120
2016-02-10T10:52:25.226Z,25390
2016-02-10T10:52:35.992Z,25731
2016-02-10T10:52:46.742Z,25819
2016-02-10T10:52:57.448Z,25567
2016-02-10T10:53:08.151Z,25035
2016-02-10T10:53:18.838Z,24379
2016-02-10T10:53:29.638Z,23823
2016-02-10T10:53:40.357Z,23251
2016-02-10T10:53:51.169Z,22819
2016-02-10T10:54:01.935Z,22561
2016-02-10T10:54:12.669Z,22260
2016-02-10T10:54:23.454Z,22089
2016-02-10T10:54:34.219Z,22137
2016-02-10T11:10:41.825Z,18639
2016-02-10T11:10:52.543Z,18698
2016-02-10T11:11:03.293Z,18752
2016-02-10T11:11:14.059Z,18583
2016-02-10T11:11:24.843Z,18607
2016-02-10T11:11:36.578Z,18645
2016-02-10T11:11:47.765Z,19019
2016-02-10T11:11:59.140Z,19257
2016-02-10T11:12:09.828Z,19293
2016-02-10T11:12:20.531Z,19042
2016-02-10T11:12:31.253Z,18813
2016-02-10T11:12:41.940Z,18740
2016-02-10T11:12:53.081Z,18569
2016-02-10T11:13:04.471Z,18593
2016-02-10T11:13:15.174Z,18661
2016-02-10T11:13:25.895Z,18693
2016-02-10T11:13:36.645Z,18744
2016-02-10T11:13:47.364Z,18743
2016-02-10T11:13:58.067Z,18636
2016-02-10T11:14:08.770Z,18328
2016-02-10T11:14:19.505Z,17865
2016-02-10T11:14:30.242Z,17329
2016-02-10T11:14:41.586Z,16801
2016-02-10T11:14:52.414Z,16425
2016-02-10T11:15:03.101Z,16334
2016-02-10T11:15:13.791Z,16332
2016-02-10T11:15:24.559Z,16386
2016-02-10T11:15:35.263Z,16615
2016-02-10T11:15:45.981Z,16877
2016-02-10T11:15:56.731Z,17141
2016-02-10T11:16:08.153Z,17253
2016-02-10T11:16:18.856Z,17450
2016-02-10T11:16:29.578Z,17317
2016-02-10T11:16:40.297Z,17680
2016-02-10T11:16:51.016Z,17931
2016-02-10T11:17:01.734Z,17767
2016-02-10T11:17:12.437Z,18187
2016-02-10T11:17:23.128Z,18180
2016-02-10T11:17:33.956Z,18022
2016-02-10T11:17:44.628Z,17769
2016-02-10T11:17:55.378Z,17551
2016-02-10T11:18:06.003Z,17403
2016-02-10T11:18:16.706Z,17386
2016-02-10T11:18:27.396Z,17622
2016-02-10T11:18:38.271Z,17902
2016-02-10T11:18:49.396Z,18104
2016-02-10T11:19:00.146Z,18331
2016-02-10T11:19:10.849Z,18593
2016-02-10T11:19:21.583Z,18803
2016-02-10T11:19:32.322Z,18996
2016-02-10T11:19:43.119Z,19153
2016-02-10T11:19:53.807Z,19223
2016-02-10T11:20:04.557Z,19277
2016-02-10T11:20:15.291Z,19383
2016-02-10T11:20:26.043Z,19422
2016-02-10T11:20:36.746Z,19247
2016-02-10T11:20:47.449Z,18897
2016-02-10T11:20:58.106Z,18415
2016-02-10T11:21:08.809Z,17952
2016-02-10T11:21:19.496Z,17749
2016-02-10T11:21:30.202Z,17478
2016-02-10T11:21:40.921Z,17222
2016-02-10T11:21:51.671Z,16923
2016-02-10T11:22:02.374Z,16694
2016-02-10T11:22:13.109Z,16554
2016-02-10T11:22:23.908Z,16630
2016-02-10T11:22:34.533Z,16741
2016-02-10T11:22:45.252Z,16784
2016-02-10T11:22:55.940Z,16757
2016-02-10T11:23:06.612Z,16721
2016-02-10T11:23:17.330Z,16624
2016-02-10T11:23:28.160Z,16510
2016-02-10T11:23:38.897Z,16362
2016-02-10T11:23:49.553Z,16396
2016-02-10T11:24:00.241Z,16676
2016-02-10T11:24:10.991Z,17133
2016-02-10T11:24:21.756Z,17738
2016-02-10T11:24:32.462Z,18387
2016-02-10T11:24:43.572Z,18934
2016-02-10T11:24:54.681Z,19532
2016-02-10T11:41:05.243Z,20008
2016-02-10T11:41:15.930Z,32170
2016-02-10T11:41:26.667Z,31453
2016-02-10T11:41:37.371Z,30918
2016-02-10T11:41:48.058Z,30577
2016-02-10T11:41:59.417Z,30394
2016-02-10T11:42:10.121Z,30212
2016-02-10T11:42:20.855Z,30021
2016-02-10T11:42:31.826Z,29954
2016-02-10T11:42:42.544Z,30091
2016-02-10T11:42:53.248Z,30476
2016-02-10T11:43:03.919Z,30977
2016-02-10T11:43:14.560Z,31525
2016-02-10T11:43:25.251Z,32074
2016-02-10T11:43:35.969Z,32547
2016-02-10T11:43:46.672Z,33072
2016-02-10T11:43:57.391Z,33665
2016-02-10T11:44:08.094Z,34090
2016-02-10T11:44:18.844Z,34154
2016-02-10T11:44:29.535Z,33871
2016-02-10T11:44:40.269Z,32926
2016-02-10T11:44:50.988Z,31547
2016-02-10T11:45:01.769Z,30131
2016-02-10T11:45:12.504Z,29033
2016-02-10T11:45:23.194Z,28200
2016-02-10T11:45:33.897Z,27490
2016-02-10T11:45:44.725Z,26980
2016-02-10T11:45:55.475Z,26392
2016-02-10T11:46:06.225Z,25805
2016-02-10T11:46:17.085Z,25140
2016-02-10T11:46:27.821Z,24511
2016-02-10T11:46:38.540Z,24040
2016-02-10T11:46:49.243Z,23703
2016-02-10T11:46:59.946Z,23453
2016-02-10T11:47:10.618Z,23328
2016-02-10T11:47:21.962Z,23430
2016-02-10T11:47:32.652Z,23621
2016-02-10T11:47:43.387Z,23856
2016-02-10T11:47:54.058Z,23985
2016-02-10T11:48:05.715Z,23938
2016-02-10T11:48:16.433Z,23569
2016-02-10T11:48:27.140Z,23136
2016-02-10T11:48:37.843Z,22493
2016-02-10T11:48:48.530Z,21715
2016-02-10T11:48:59.218Z,20839
2016-02-10T11:49:10.358Z,20026
2016-02-10T11:49:21.202Z,19534
2016-02-10T11:49:32.048Z,19203
2016-02-10T11:49:42.767Z,19135
2016-02-10T11:49:53.454Z,19341
2016-02-10T11:50:04.157Z,19759
2016-02-10T11:50:14.876Z,20319
2016-02-10T11:50:25.566Z,20872
2016-02-10T11:50:36.301Z,21276
2016-02-10T11:50:47.069Z,21691
2016-02-10T11:50:57.804Z,22325
2016-02-10T11:51:08.523Z,23094
2016-02-10T11:51:19.194Z,23964
2016-02-10T11:51:29.885Z,24478
2016-02-10T11:51:40.604Z,24752
2016-02-10T11:51:51.276Z,24956
2016-02-10T11:52:01.994Z,25294
2016-02-10T11:52:12.744Z,25834
2016-02-10T11:52:23.497Z,26591
2016-02-10T11:52:34.654Z,27309
2016-02-10T11:52:45.404Z,28120
2016-02-10T11:52:56.091Z,28624
2016-02-10T11:53:06.794Z,28944
2016-02-10T11:53:17.513Z,29106
2016-02-10T11:53:28.219Z,29062
2016-02-10T11:53:38.985Z,28732
2016-02-10T11:53:50.360Z,28295
2016-02-10T11:54:01.500Z,27676
2016-02-10T11:54:12.610Z,27265
2016-02-10T11:54:23.300Z,27046
2016-02-10T11:54:34.019Z,26808
2016-02-10T11:54:44.722Z,26545
2016-02-10T11:54:55.441Z,26235
2016-02-10T11:55:06.160Z,25768
2016-02-10T11:55:16.894Z,25449
2016-02-10T11:55:27.599Z,25218
2016-02-10T12:11:29.513Z,21154
2016-02-10T12:11:40.231Z,21251
2016-02-10T12:11:50.919Z,21200
2016-02-10T12:12:01.653Z,21035
2016-02-10T12:12:12.435Z,20964
2016-02-10T12:12:23.310Z,20823
2016-02-10T12:12:34.045Z,20640
2016-02-10T12:12:44.811Z,20334
2016-02-10T12:12:55.686Z,20033
2016-02-10T12:13:06.420Z,19612
2016-02-10T12:13:17.123Z,19328
2016-02-10T12:13:27.937Z,19055
2016-02-10T12:13:38.702Z,18860
2016-02-10T12:13:49.437Z,18726
2016-02-10T12:14:01.218Z,18689
2016-02-10T12:14:11.983Z,18810
2016-02-10T12:14:22.687Z,19009
2016-02-10T12:14:33.408Z,19218
2016-02-10T12:14:44.143Z,19355
2016-02-10T12:14:54.924Z,19364
2016-02-10T12:15:05.971Z,19432
2016-02-10T12:15:16.705Z,19320
2016-02-10T12:15:27.504Z,19179
2016-02-10T12:15:38.238Z,18906
2016-02-10T12:15:49.020Z,18466
2016-02-10T12:15:59.801Z,17923
2016-02-10T12:16:10.520Z,17509
2016-02-10T12:16:21.238Z,17133
2016-02-10T12:16:31.990Z,16957
2016-02-10T12:16:42.847Z,16809
2016-02-10T12:16:53.550Z,16824
2016-02-10T12:17:04.222Z,16850
2016-02-10T12:17:14.941Z,16877
2016-02-10T12:17:25.631Z,16843
2016-02-10T12:17:36.366Z,16807
2016-02-10T12:17:47.162Z,16702
2016-02-10T12:17:57.975Z,16545
2016-02-10T12:18:08.678Z,16404
2016-02-10T12:18:19.412Z,16272
2016-02-10T12:18:30.133Z,16121
2016-02-10T12:18:40.852Z,16022
2016-02-10T12:18:51.649Z,15846
2016-02-10T12:19:02.430Z,15687
2016-02-10T12:19:13.836Z,15633
2016-02-10T12:19:24.542Z,15649
2016-02-10T12:19:35.292Z,15621
2016-02-10T12:19:45.933Z,15602